createdAt,value
2018-04-30T00:01:47.236Z,97428.40
2018-04-30T00:04:14.694Z,97425.37
2018-04-30T00:06:42.183Z,97415.80
2018-04-30T00:09:09.639Z,97420.25
2018-04-30T00:11:37.122Z,97427.45
2018-04-30T00:14:04.594Z,97417.45
2018-04-30T00:16:32.094Z,97429.30
2018-04-30T00:18:59.559Z,97439.19
2018-04-30T00:21:27.013Z,97447.31
2018-04-30T00:23:54.498Z,97443.06
2018-04-30T00:26:21.951Z,97439.43
2018-04-30T00:28:49.433Z,97455.20
2018-04-30T00:31:16.891Z,97444.97
2018-04-30T00:33:45.198Z,97481.69
2018-04-30T00:36:12.663Z,97512.36
2018-04-30T00:38:40.147Z,97525.53
2018-04-30T00:41:07.606Z,97518.94
2018-04-30T00:43:35.087Z,97516.03
2018-04-30T00:46:02.562Z,97503.56
2018-04-30T00:48:30.042Z,97512.85
2018-04-30T00:50:57.550Z,97497.89
2018-04-30T00:53:25.030Z,97472.70
2018-04-30T00:55:52.493Z,97450.98
2018-04-30T00:58:19.970Z,97446.42
2018-04-30T01:00:47.426Z,97466.39
2018-04-30T01:03:14.910Z,97473.80
2018-04-30T01:05:42.365Z,97488.03
2018-04-30T01:08:09.855Z,97490.92
2018-04-30T01:10:37.315Z,97485.71
2018-04-30T01:13:04.798Z,97500.28
2018-04-30T01:15:32.255Z,97493.24
2018-04-30T01:17:59.730Z,97486.05
2018-04-30T01:20:27.182Z,97487.70
2018-04-30T01:22:54.661Z,97494.81
2018-04-30T01:25:22.124Z,97498.31
2018-04-30T01:27:49.606Z,97500.40
2018-04-30T01:30:17.061Z,97506.89
2018-04-30T01:32:44.544Z,97492.64
2018-04-30T01:35:12.043Z,97501.95
2018-04-30T01:37:39.522Z,97504.93
2018-04-30T01:40:06.987Z,97498.66
2018-04-30T01:42:34.465Z,97489.34
2018-04-30T01:45:01.942Z,97493.70
2018-04-30T01:47:29.434Z,97492.28
2018-04-30T01:49:56.890Z,97491.30
2018-04-30T01:52:24.345Z,97494.34
2018-04-30T01:54:51.830Z,97475.66
2018-04-30T01:57:19.285Z,97472.85
2018-04-30T01:59:46.761Z,97470.20
2018-04-30T02:02:16.206Z,97471.48
2018-04-30T02:04:44.601Z,97471.17
2018-04-30T02:07:12.094Z,97443.80
2018-04-30T02:09:39.578Z,97428.25
2018-04-30T02:12:07.038Z,97430.41
2018-04-30T02:14:34.531Z,97453.98
2018-04-30T02:17:01.986Z,97474.86
2018-04-30T02:19:29.461Z,97493.41
2018-04-30T02:21:56.919Z,97499.19
2018-04-30T02:24:24.398Z,97490.56
2018-04-30T02:26:51.858Z,97484.17
2018-04-30T02:29:19.347Z,97478.75
2018-04-30T02:31:46.813Z,97502.59
2018-04-30T02:34:14.491Z,97506.82
2018-04-30T02:36:41.954Z,97503.98
2018-04-30T02:39:09.438Z,97504.69
2018-04-30T02:41:36.895Z,97506.94
2018-04-30T02:44:04.373Z,97507.53
2018-04-30T02:46:31.832Z,97503.69
2018-04-30T02:48:59.323Z,97501.68
2018-04-30T02:51:26.786Z,97506.69
2018-04-30T02:53:54.291Z,97511.92
2018-04-30T02:56:21.751Z,97510.22
2018-04-30T02:58:49.231Z,97524.39
2018-04-30T03:01:16.686Z,97519.38
2018-04-30T03:03:44.200Z,97523.39
2018-04-30T03:06:11.682Z,97528.11
2018-04-30T03:08:39.158Z,97519.68
2018-04-30T03:11:06.615Z,97520.40
2018-04-30T03:13:34.097Z,97516.31
2018-04-30T03:16:01.571Z,97515.25
2018-04-30T03:18:29.050Z,97519.37
2018-04-30T03:20:56.509Z,97514.16
2018-04-30T03:23:23.989Z,97518.16
2018-04-30T03:25:51.478Z,97521.70
2018-04-30T03:28:18.953Z,97522.57
2018-04-30T03:30:46.442Z,97508.05
2018-04-30T03:33:13.907Z,97503.23
2018-04-30T03:35:41.386Z,97506.34
2018-04-30T03:38:08.842Z,97508.63
2018-04-30T03:40:36.336Z,97519.50
2018-04-30T03:43:03.794Z,97513.61
2018-04-30T03:45:31.291Z,97520.09
2018-04-30T03:47:58.762Z,97522.96
2018-04-30T03:50:26.237Z,97523.80
2018-04-30T03:52:53.694Z,97520.98
2018-04-30T03:55:21.174Z,97530.19
2018-04-30T03:57:48.646Z,97525.43
2018-04-30T04:00:27.999Z,97526.01
2018-04-30T04:03:07.242Z,97530.38
2018-04-30T04:05:46.557Z,97523.98
2018-04-30T04:08:14.023Z,97527.29
2018-04-30T04:10:41.502Z,97536.62
2018-04-30T04:13:08.962Z,97537.09
2018-04-30T04:15:36.562Z,97534.70
2018-04-30T04:18:04.026Z,97530.08
2018-04-30T04:20:31.505Z,97533.03
2018-04-30T04:22:59.036Z,97536.73
2018-04-30T04:25:26.523Z,97552.42
2018-04-30T04:27:53.982Z,97558.12
2018-04-30T04:30:21.458Z,97573.09
2018-04-30T04:32:48.922Z,97574.69
2018-04-30T04:35:16.398Z,97570.88
2018-04-30T04:37:43.861Z,97581.61
2018-04-30T04:40:11.355Z,97590.71
2018-04-30T04:42:38.821Z,97593.75
2018-04-30T04:45:06.306Z,97603.94
2018-04-30T04:47:33.832Z,97614.19
2018-04-30T04:50:01.261Z,97617.61
2018-04-30T04:52:28.734Z,97608.92
2018-04-30T04:54:56.214Z,97609.16
2018-04-30T04:57:23.675Z,97605.60
2018-04-30T04:59:51.162Z,97606.98
2018-04-30T05:02:18.692Z,97607.87
2018-04-30T05:04:46.130Z,97607.11
2018-04-30T05:07:13.607Z,97608.06
2018-04-30T05:09:41.066Z,97602.41
2018-04-30T05:12:08.547Z,97604.92
2018-04-30T05:14:36.002Z,97597.94
2018-04-30T05:17:03.483Z,97597.95
2018-04-30T05:19:30.937Z,97594.88
2018-04-30T05:21:58.417Z,97599.91
2018-04-30T05:24:25.898Z,97599.44
2018-04-30T05:26:53.407Z,97603.41
2018-04-30T05:29:20.866Z,97607.36
2018-04-30T05:31:48.341Z,97611.06
2018-04-30T05:34:15.857Z,97610.13
2018-04-30T05:36:43.314Z,97609.48
2018-04-30T05:39:10.769Z,97608.20
2018-04-30T05:41:38.250Z,97608.53
2018-04-30T05:44:05.714Z,97609.24
2018-04-30T05:46:33.278Z,97600.09
2018-04-30T05:49:00.734Z,97606.09
2018-04-30T05:51:28.220Z,97607.44
2018-04-30T05:53:55.679Z,97601.16
2018-04-30T05:56:23.161Z,97602.73
2018-04-30T05:58:50.648Z,97604.13
2018-04-30T06:01:18.126Z,97604.72
2018-04-30T06:03:45.585Z,97607.55
2018-04-30T06:06:13.065Z,97596.42
2018-04-30T06:08:40.538Z,97593.89
2018-04-30T06:11:08.019Z,97592.37
2018-04-30T06:13:35.483Z,97598.61
2018-04-30T06:16:02.962Z,97597.00
2018-04-30T06:18:30.423Z,97591.33
2018-04-30T06:20:57.989Z,97594.01
2018-04-30T06:23:25.449Z,97600.24
2018-04-30T06:25:52.934Z,97596.14
2018-04-30T06:28:20.398Z,97589.31
2018-04-30T06:30:47.882Z,97590.36
2018-04-30T06:33:15.337Z,97591.20
2018-04-30T06:35:42.826Z,97586.31
2018-04-30T06:38:10.292Z,97595.87
2018-04-30T06:40:37.796Z,97590.08
2018-04-30T06:43:05.295Z,97582.45
2018-04-30T06:45:32.789Z,97577.34
2018-04-30T06:48:00.284Z,97570.86
2018-04-30T06:50:27.747Z,97579.44
2018-04-30T06:52:55.234Z,97588.76
2018-04-30T06:55:22.694Z,97587.59
2018-04-30T06:57:50.181Z,97581.34
2018-04-30T07:00:17.724Z,97577.70
2018-04-30T07:02:45.157Z,97579.80
2018-04-30T07:05:12.613Z,97575.56
2018-04-30T07:07:40.102Z,97572.15
2018-04-30T07:10:07.629Z,97571.08
2018-04-30T07:12:35.145Z,97566.47
2018-04-30T07:15:02.604Z,97567.57
2018-04-30T07:17:30.094Z,97575.02
2018-04-30T07:19:57.558Z,97570.00
2018-04-30T07:22:25.470Z,97567.33
2018-04-30T07:24:52.961Z,97566.00
2018-04-30T07:27:20.443Z,97559.61
2018-04-30T07:29:47.979Z,97570.41
2018-04-30T07:32:15.463Z,97563.44
2018-04-30T07:34:42.947Z,97569.48
2018-04-30T07:37:10.457Z,97559.74
2018-04-30T07:39:37.916Z,97566.26
2018-04-30T07:42:05.405Z,97560.36
2018-04-30T07:44:32.877Z,97557.23
2018-04-30T07:47:00.379Z,97556.34
2018-04-30T07:49:27.846Z,97553.63
2018-04-30T07:51:55.358Z,97559.39
2018-04-30T07:54:22.814Z,97565.05
2018-04-30T07:56:50.323Z,97560.51
2018-04-30T07:59:17.777Z,97566.25
2018-04-30T08:01:45.275Z,97559.63
2018-04-30T08:04:12.750Z,97553.31
2018-04-30T08:06:40.255Z,97554.49
2018-04-30T08:09:07.775Z,97554.55
2018-04-30T08:11:35.277Z,97552.80
2018-04-30T08:14:02.822Z,97566.37
2018-04-30T08:16:30.410Z,97569.13
2018-04-30T08:18:57.911Z,97569.77
2018-04-30T08:21:25.445Z,97581.06
2018-04-30T08:23:52.906Z,97568.99
2018-04-30T08:26:20.363Z,97569.97
2018-04-30T08:28:47.866Z,97574.78
2018-04-30T08:31:15.423Z,97568.65
2018-04-30T08:33:42.937Z,97567.21
2018-04-30T08:36:10.431Z,97572.69
2018-04-30T08:38:37.947Z,97563.81
2018-04-30T08:41:05.461Z,97563.34
2018-04-30T08:43:32.985Z,97559.45
2018-04-30T08:46:00.460Z,97575.11
2018-04-30T08:48:27.950Z,97575.52
2018-04-30T08:50:55.679Z,97574.19
2018-04-30T08:53:23.172Z,97581.70
2018-04-30T08:55:50.634Z,97575.34
2018-04-30T08:58:18.126Z,97583.22
2018-04-30T09:00:45.602Z,97578.71
2018-04-30T09:03:13.086Z,97573.02
2018-04-30T09:05:40.543Z,97582.77
2018-04-30T09:08:08.042Z,97591.38
2018-04-30T09:10:35.630Z,97584.51
2018-04-30T09:13:03.118Z,97592.45
2018-04-30T09:15:30.584Z,97604.14
2018-04-30T09:17:58.147Z,97587.95
2018-04-30T09:20:25.622Z,97582.07
2018-04-30T09:22:53.113Z,97593.80
2018-04-30T09:25:20.582Z,97584.73
2018-04-30T09:27:49.091Z,97580.00
2018-04-30T09:30:16.566Z,97576.05
2018-04-30T09:32:44.084Z,97587.88
2018-04-30T09:35:11.623Z,97583.22
2018-04-30T09:37:39.159Z,97596.66
2018-04-30T09:40:06.623Z,97591.66
2018-04-30T09:42:34.094Z,97588.24
2018-04-30T09:45:01.606Z,97593.93
2018-04-30T09:47:29.063Z,97588.92
2018-04-30T09:49:56.550Z,97590.22
2018-04-30T09:52:24.037Z,97591.91
2018-04-30T09:54:52.057Z,97575.64
2018-04-30T09:57:22.839Z,97588.53
2018-04-30T09:59:50.470Z,97589.88
2018-04-30T10:02:19.124Z,97585.52
2018-04-30T10:04:46.641Z,97587.33
2018-04-30T10:07:14.137Z,97609.30
2018-04-30T10:09:45.077Z,97610.64
2018-04-30T10:12:12.645Z,97611.44
2018-04-30T10:14:40.159Z,97601.31
2018-04-30T10:17:07.635Z,97618.61
2018-04-30T10:19:35.155Z,97606.66
2018-04-30T10:22:02.614Z,97616.22
2018-04-30T10:24:30.130Z,97587.48
2018-04-30T10:26:57.602Z,97608.78
2018-04-30T10:29:25.212Z,97596.55
2018-04-30T10:31:52.888Z,97617.67
2018-04-30T10:34:20.374Z,97586.96
2018-04-30T10:36:47.842Z,97600.68
2018-04-30T10:39:15.330Z,97595.76
2018-04-30T10:41:42.881Z,97592.48
2018-04-30T10:44:10.402Z,97595.81
2018-04-30T10:46:37.931Z,97591.97
2018-04-30T10:49:05.470Z,97594.53
2018-04-30T10:51:32.999Z,97580.41
2018-04-30T10:54:00.515Z,97574.45
2018-04-30T10:56:28.008Z,97577.21
2018-04-30T10:58:55.527Z,97568.92
2018-04-30T11:01:23.007Z,97572.58
2018-04-30T11:03:50.509Z,97595.37
2018-04-30T11:06:17.995Z,97591.95
2018-04-30T11:08:45.496Z,97586.75
2018-04-30T11:11:12.981Z,97592.53
2018-04-30T11:13:40.506Z,97593.17
2018-04-30T11:16:07.994Z,97584.97
2018-04-30T11:18:35.458Z,97599.39
2018-04-30T11:21:02.939Z,97602.45
2018-04-30T11:23:30.418Z,97598.17
2018-04-30T11:25:57.904Z,97593.59
2018-04-30T11:28:25.380Z,97603.17
2018-04-30T11:30:52.890Z,97596.42
2018-04-30T11:33:20.362Z,97587.48
2018-04-30T11:35:47.862Z,97577.66
2018-04-30T11:38:15.362Z,97577.94
2018-04-30T11:40:42.911Z,97572.82
2018-04-30T11:43:10.506Z,97595.09
2018-04-30T11:45:39.292Z,97569.08
2018-04-30T11:48:07.187Z,97582.41
2018-04-30T11:50:34.811Z,97581.61
2018-04-30T11:53:02.636Z,97606.38
2018-04-30T11:55:30.175Z,97607.85
2018-04-30T11:57:57.696Z,97607.05
2018-04-30T12:00:25.197Z,97596.34
2018-04-30T12:02:52.683Z,97582.33
2018-04-30T12:05:20.242Z,97576.23
2018-04-30T12:07:47.767Z,97586.05
2018-04-30T12:10:15.302Z,97574.54
2018-04-30T12:12:42.803Z,97575.00
2018-04-30T12:15:10.349Z,97567.44
2018-04-30T12:17:37.957Z,97568.27
2018-04-30T12:20:05.458Z,97570.29
2018-04-30T12:22:32.975Z,97562.84
2018-04-30T12:25:00.529Z,97571.38
2018-04-30T12:27:28.060Z,97587.72
2018-04-30T12:29:55.602Z,97582.81
2018-04-30T12:32:23.133Z,97567.64
2018-04-30T12:34:50.643Z,97569.31
2018-04-30T12:37:18.146Z,97573.48
2018-04-30T12:39:45.659Z,97577.30
2018-04-30T12:42:13.390Z,97572.45
2018-04-30T12:44:40.877Z,97574.28
2018-04-30T12:47:08.447Z,97568.06
2018-04-30T12:49:36.160Z,97570.39
2018-04-30T12:52:03.627Z,97569.04
2018-04-30T12:54:31.102Z,97566.57
2018-04-30T12:56:58.615Z,97561.20
2018-04-30T12:59:26.089Z,97558.22
2018-04-30T13:01:53.594Z,97562.49
2018-04-30T13:04:21.119Z,97543.09
2018-04-30T13:06:48.637Z,97554.11
2018-04-30T13:09:16.112Z,97551.48
2018-04-30T13:11:43.660Z,97540.44
2018-04-30T13:14:11.150Z,97543.20
2018-04-30T13:16:38.670Z,97559.68
2018-04-30T13:19:06.167Z,97541.56
2018-04-30T13:21:33.688Z,97529.23
2018-04-30T13:24:01.158Z,97526.94
2018-04-30T13:26:28.662Z,97522.75
2018-04-30T13:28:56.144Z,97540.37
2018-04-30T13:31:23.626Z,97515.22
2018-04-30T13:33:51.102Z,97531.33
2018-04-30T13:36:18.611Z,97527.39
2018-04-30T13:38:46.097Z,97535.91
2018-04-30T13:41:14.002Z,97524.97
2018-04-30T13:43:41.554Z,97532.75
2018-04-30T13:46:08.997Z,97529.88
2018-04-30T13:48:36.465Z,97534.55
2018-04-30T13:51:03.986Z,97534.64
2018-04-30T13:53:31.449Z,97533.13
2018-04-30T13:55:58.950Z,97533.58
2018-04-30T13:58:26.430Z,97520.38
2018-04-30T14:00:53.918Z,97509.71
2018-04-30T14:03:21.403Z,97530.16
2018-04-30T14:05:48.895Z,97516.17
2018-04-30T14:08:16.360Z,97534.16
2018-04-30T14:10:43.868Z,97512.75
2018-04-30T14:13:11.346Z,97523.23
2018-04-30T14:15:38.827Z,97524.28
2018-04-30T14:18:06.330Z,97522.30
2018-04-30T14:20:33.786Z,97529.10
2018-04-30T14:23:01.278Z,97513.50
2018-04-30T14:25:28.749Z,97517.30
2018-04-30T14:27:56.246Z,97531.63
2018-04-30T14:30:23.710Z,97525.03
2018-04-30T14:32:51.202Z,97514.52
2018-04-30T14:35:18.722Z,97524.37
2018-04-30T14:37:46.226Z,97522.00
2018-04-30T14:40:13.685Z,97532.63
2018-04-30T14:42:41.195Z,97532.75
2018-04-30T14:45:08.661Z,97515.73
2018-04-30T14:47:36.149Z,97515.76
2018-04-30T14:50:03.614Z,97526.01
2018-04-30T14:52:31.107Z,97534.14
2018-04-30T14:54:58.575Z,97542.34
2018-04-30T14:57:26.074Z,97532.00
2018-04-30T14:59:53.535Z,97531.48
2018-04-30T15:02:21.013Z,97527.39
2018-04-30T15:04:48.485Z,97542.95
2018-04-30T15:07:15.962Z,97533.81
2018-04-30T15:09:43.434Z,97543.22
2018-04-30T15:12:10.960Z,97554.84
2018-04-30T15:14:38.486Z,97547.14
2018-04-30T15:17:05.985Z,97553.73
2018-04-30T15:19:33.535Z,97548.20
2018-04-30T15:22:01.003Z,97558.58
2018-04-30T15:24:28.461Z,97562.45
2018-04-30T15:26:55.939Z,97575.28
2018-04-30T15:29:23.429Z,97569.50
2018-04-30T15:31:50.967Z,97577.84
2018-04-30T15:34:18.437Z,97578.12
2018-04-30T15:36:45.942Z,97590.53
2018-04-30T15:39:13.445Z,97572.38
2018-04-30T15:41:40.992Z,97578.36
2018-04-30T15:44:08.461Z,97589.78
2018-04-30T15:46:35.959Z,97587.07
2018-04-30T15:49:03.504Z,97595.03
2018-04-30T15:51:30.993Z,97587.39
2018-04-30T15:53:58.560Z,97612.84
2018-04-30T15:56:26.041Z,97596.83
2018-04-30T15:58:53.602Z,97608.32
2018-04-30T16:01:21.159Z,97613.72
2018-04-30T16:03:48.606Z,97626.72
2018-04-30T16:06:16.067Z,97655.21
2018-04-30T16:08:43.679Z,97654.96
2018-04-30T16:11:11.174Z,97655.95
2018-04-30T16:13:38.717Z,97651.70
2018-04-30T16:16:06.236Z,97659.58
2018-04-30T16:18:33.816Z,97661.69
2018-04-30T16:21:01.283Z,97667.52
2018-04-30T16:23:28.795Z,97672.48
2018-04-30T16:25:56.274Z,97640.53
2018-04-30T16:28:23.775Z,97650.45
2018-04-30T16:30:51.366Z,97651.89
2018-04-30T16:33:18.900Z,97652.30
2018-04-30T16:35:46.354Z,97653.15
2018-04-30T16:38:13.926Z,97674.33
2018-04-30T16:40:41.390Z,97679.70
2018-04-30T16:43:08.890Z,97681.33
2018-04-30T16:45:36.356Z,97690.47
2018-04-30T16:48:03.838Z,97699.13
2018-04-30T16:50:31.315Z,97699.19
2018-04-30T16:52:58.850Z,97716.73
2018-04-30T16:55:26.302Z,97701.80
2018-04-30T16:57:53.809Z,97714.27
2018-04-30T17:02:48.128Z,97752.94
2018-04-30T17:05:15.607Z,97746.75
2018-04-30T17:07:43.076Z,97763.79
2018-04-30T17:10:10.584Z,97764.30
2018-04-30T17:12:38.074Z,97761.59
2018-04-30T17:15:05.609Z,97743.30
2018-04-30T17:17:33.075Z,97738.77
2018-04-30T17:20:00.569Z,97752.87
2018-04-30T17:22:28.047Z,97750.03
2018-04-30T17:24:55.538Z,97758.09
2018-04-30T17:27:23.016Z,97771.11
2018-04-30T17:29:50.532Z,97773.66
2018-04-30T17:32:18.004Z,97784.54
2018-04-30T17:34:45.503Z,97788.27
2018-04-30T17:37:14.756Z,97798.75
2018-04-30T17:39:42.262Z,97789.00
2018-04-30T17:42:10.370Z,97794.81
2018-04-30T17:44:37.913Z,97783.23
2018-04-30T17:47:05.408Z,97801.06
2018-04-30T17:49:32.993Z,97805.16
2018-04-30T17:52:03.702Z,97803.41
2018-04-30T17:54:33.420Z,97807.23
2018-04-30T17:57:00.892Z,97813.72
2018-04-30T17:59:28.745Z,97815.84
2018-04-30T18:01:56.231Z,97822.36
2018-04-30T18:04:23.999Z,97827.84
2018-04-30T18:06:51.579Z,97828.56
2018-04-30T18:09:19.004Z,97839.96
2018-04-30T18:11:46.466Z,97838.78
2018-04-30T18:14:15.103Z,97832.50
2018-04-30T18:16:42.570Z,97839.61
2018-04-30T18:19:12.488Z,97840.91
2018-04-30T18:21:45.518Z,97838.64
2018-04-30T18:24:13.027Z,97844.92
2018-04-30T18:26:40.601Z,97843.82
2018-04-30T18:29:08.081Z,97854.92
2018-04-30T18:31:35.578Z,97855.73
2018-04-30T18:34:03.063Z,97859.91
2018-04-30T18:36:30.525Z,97864.41
2018-04-30T18:38:58.055Z,97865.81
2018-04-30T18:41:25.536Z,97873.83
2018-04-30T18:43:53.843Z,97866.25
2018-04-30T18:46:21.314Z,97857.20
2018-04-30T18:48:48.881Z,97857.50
2018-04-30T18:51:16.436Z,97858.56
2018-04-30T18:53:43.931Z,97856.91
2018-04-30T18:56:11.456Z,97860.44
2018-04-30T18:58:38.949Z,97866.22
2018-04-30T19:01:06.475Z,97877.92
2018-04-30T19:03:33.960Z,97881.48
2018-04-30T19:06:01.526Z,97880.69
2018-04-30T19:08:28.993Z,97872.83
2018-04-30T19:10:56.495Z,97875.41
2018-04-30T19:13:23.949Z,97878.13
2018-04-30T19:15:51.442Z,97881.64
2018-04-30T19:18:18.905Z,97885.72
2018-04-30T19:20:46.383Z,97891.50
2018-04-30T19:23:13.888Z,97885.70
2018-04-30T19:25:41.378Z,97887.38
2018-04-30T19:28:08.835Z,97891.11
2018-04-30T19:30:36.518Z,97896.34
2018-04-30T19:33:03.991Z,97901.54
2018-04-30T19:35:31.487Z,97899.41
2018-04-30T19:37:59.232Z,97896.80
2018-04-30T19:40:26.734Z,97906.39
2018-04-30T19:42:54.221Z,97912.44
2018-04-30T19:45:21.746Z,97922.88
2018-04-30T19:47:49.219Z,97930.52
2018-04-30T19:50:16.729Z,97935.56
2018-04-30T19:52:44.206Z,97936.80
2018-04-30T19:55:11.701Z,97948.35
2018-04-30T19:57:39.170Z,97960.73
2018-04-30T20:00:06.650Z,97971.77
2018-04-30T20:02:34.116Z,97970.06
2018-04-30T20:05:01.616Z,97972.16
2018-04-30T20:07:29.094Z,97979.22
2018-04-30T20:09:56.607Z,97985.86
2018-04-30T20:12:24.109Z,97976.81
2018-04-30T20:14:51.583Z,97975.23
2018-04-30T20:17:19.082Z,97981.29
2018-04-30T20:19:46.541Z,97978.98
2018-04-30T20:22:14.199Z,97984.62
2018-04-30T20:24:41.713Z,97974.33
2018-04-30T20:27:09.222Z,97978.34
2018-04-30T20:29:36.708Z,97979.94
2018-04-30T20:32:04.194Z,97986.53
2018-04-30T20:34:31.679Z,97984.41
2018-04-30T20:36:59.166Z,97985.73
2018-04-30T20:39:26.638Z,97986.59
2018-04-30T20:41:54.131Z,97988.20
2018-04-30T20:44:21.627Z,97981.38
2018-04-30T20:46:49.228Z,97995.63
2018-04-30T20:49:16.740Z,97998.47
2018-04-30T20:51:44.224Z,97990.09
2018-04-30T20:54:11.708Z,97983.28
2018-04-30T20:56:39.207Z,97988.45
2018-04-30T20:59:06.690Z,97984.42
2018-04-30T21:01:35.145Z,97983.39
2018-04-30T21:04:02.834Z,97993.25
2018-04-30T21:06:30.348Z,97993.53
2018-04-30T21:09:15.603Z,98005.28
2018-04-30T21:11:44.082Z,98008.78
2018-04-30T21:14:12.124Z,98010.03
2018-04-30T21:16:39.602Z,98022.06
2018-04-30T21:19:07.058Z,98032.05
2018-04-30T21:21:35.094Z,98028.25
2018-04-30T21:24:02.720Z,98036.83
2018-04-30T21:26:30.216Z,98036.08
2018-04-30T21:28:57.721Z,98045.17
2018-04-30T21:31:25.210Z,98044.20
2018-04-30T21:33:53.626Z,98044.59
2018-04-30T21:36:21.181Z,98038.34
2018-04-30T21:38:48.647Z,98040.33
2018-04-30T21:41:16.127Z,98050.52
2018-04-30T21:43:43.599Z,98042.61
2018-04-30T21:46:11.085Z,98046.59
2018-04-30T21:48:38.578Z,98054.20
2018-04-30T21:51:06.057Z,98055.47
2018-04-30T21:53:33.522Z,98049.89
2018-04-30T21:56:00.989Z,98055.03
2018-04-30T21:58:28.474Z,98053.91
2018-04-30T22:00:55.974Z,98054.95
2018-04-30T22:03:23.459Z,98058.47
2018-04-30T22:05:50.920Z,98058.00
2018-04-30T22:08:18.409Z,98061.21
2018-04-30T22:10:45.869Z,98060.28
2018-04-30T22:13:13.377Z,98059.68
2018-04-30T22:15:40.837Z,98060.44
2018-04-30T22:18:08.318Z,98064.95
2018-04-30T22:20:35.770Z,98070.20
2018-04-30T22:23:03.246Z,98068.19
2018-04-30T22:25:30.710Z,98071.95
2018-04-30T22:27:58.225Z,98072.89
2018-04-30T22:30:25.671Z,98075.16
2018-04-30T22:32:53.150Z,98076.86
2018-04-30T22:35:20.605Z,98085.90
2018-04-30T22:37:48.090Z,98087.09
2018-04-30T22:40:15.550Z,98090.25
2018-04-30T22:42:43.026Z,98088.67
2018-04-30T22:45:10.482Z,98092.38
2018-04-30T22:47:37.960Z,98092.88
2018-04-30T22:50:05.426Z,98093.64
2018-04-30T22:52:32.904Z,98091.81
2018-04-30T22:55:00.357Z,98090.56
2018-04-30T22:57:27.830Z,98103.16
2018-04-30T22:59:55.294Z,98100.02
2018-04-30T23:02:23.067Z,98098.27
2018-04-30T23:04:50.542Z,98088.36
2018-04-30T23:07:18.031Z,98091.42
2018-04-30T23:09:45.496Z,98097.20
2018-04-30T23:12:13.039Z,98097.34
2018-04-30T23:14:40.506Z,98101.57
2018-04-30T23:17:07.986Z,98102.91
2018-04-30T23:19:35.442Z,98101.78
2018-04-30T23:22:02.926Z,98098.64
2018-04-30T23:24:30.382Z,98110.11
2018-04-30T23:26:57.839Z,98106.59
2018-04-30T23:29:25.325Z,98106.89
2018-04-30T23:31:52.783Z,98099.36
2018-04-30T23:34:20.262Z,98095.84
2018-04-30T23:36:47.739Z,98089.70
2018-04-30T23:39:15.218Z,98097.55
2018-04-30T23:41:42.674Z,98093.38
2018-04-30T23:44:10.154Z,98088.61
2018-04-30T23:46:37.612Z,98090.44
2018-04-30T23:49:05.105Z,98081.57
2018-04-30T23:51:32.607Z,98080.44
2018-04-30T23:54:00.086Z,98080.56
2018-04-30T23:56:27.542Z,98094.36
2018-04-30T23:58:55.020Z,98094.87
